sensor_id;sensor_type;location;lat;lon;timestamp;P1;P2;P0
27143;PMS1003;14672;50.250;8.312;2023-07-13T00:01:51;7.50;7.50;2.00
27143;PMS1003;14672;50.250;8.312;2023-07-13T00:04:18;6.75;6.75;1.75
27143;PMS1003;14672;50.250;8.312;2023-07-13T00:06:46;9.25;9.00;4.00
27143;PMS1003;14672;50.250;8.312;2023-07-13T00:09:12;12.00;11.75;4.50
27143;PMS1003;14672;50.250;8.312;2023-07-13T00:11:40;9.25;8.00;4.00
27143;PMS1003;14672;50.250;8.312;2023-07-13T00:14:07;8.25;8.00;4.00
27143;PMS1003;14672;50.250;8.312;2023-07-13T00:16:34;6.25;6.25;2.50
27143;PMS1003;14672;50.250;8.312;2023-07-13T00:19:02;6.75;6.75;2.50
27143;PMS1003;14672;50.250;8.312;2023-07-13T00:21:28;6.75;6.00;2.00
27143;PMS1003;14672;50.250;8.312;2023-07-13T00:23:54;8.50;8.00;3.50
27143;PMS1003;14672;50.250;8.312;2023-07-13T00:26:20;7.67;7.67;2.00
27143;PMS1003;14672;50.250;8.312;2023-07-13T00:28:46;7.75;6.00;2.00
27143;PMS1003;14672;50.250;8.312;2023-07-13T00:31:13;9.00;8.00;2.67
27143;PMS1003;14672;50.250;8.312;2023-07-13T00:33:39;8.00;8.00;2.00
27143;PMS1003;14672;50.250;8.312;2023-07-13T00:36:07;8.00;8.00;4.00
27143;PMS1003;14672;50.250;8.312;2023-07-13T00:38:33;9.00;8.50;4.00
27143;PMS1003;14672;50.250;8.312;2023-07-13T00:41:00;8.00;8.00;2.00
27143;PMS1003;14672;50.250;8.312;2023-07-13T00:43:28;8.00;8.00;3.50
27143;PMS1003;14672;50.250;8.312;2023-07-13T00:48:27;6.75;6.75;2.25
27143;PMS1003;14672;50.250;8.312;2023-07-13T00:50:59;7.50;7.50;2.50
27143;PMS1003;14672;50.250;8.312;2023-07-13T00:53:27;8.25;8.25;1.75
27143;PMS1003;14672;50.250;8.312;2023-07-13T00:55:57;9.00;9.00;4.50
27143;PMS1003;14672;50.250;8.312;2023-07-13T00:58:24;9.00;8.00;3.33
27143;PMS1003;14672;50.250;8.312;2023-07-13T01:00:51;6.00;6.00;2.50
27143;PMS1003;14672;50.250;8.312;2023-07-13T01:03:18;9.75;8.00;4.50
27143;PMS1003;14672;50.250;8.312;2023-07-13T01:05:44;10.25;8.00;4.00
27143;PMS1003;14672;50.250;8.312;2023-07-13T01:08:15;7.75;7.75;3.50
27143;PMS1003;14672;50.250;8.312;2023-07-13T01:10:41;10.50;9.75;2.00
27143;PMS1003;14672;50.250;8.312;2023-07-13T01:13:16;7.00;7.00;2.00
27143;PMS1003;14672;50.250;8.312;2023-07-13T01:15:43;8.00;8.00;4.00
27143;PMS1003;14672;50.250;8.312;2023-07-13T01:18:14;11.00;10.00;2.00
27143;PMS1003;14672;50.250;8.312;2023-07-13T01:20:59;7.25;7.00;2.00
27143;PMS1003;14672;50.250;8.312;2023-07-13T01:23:29;7.25;7.25;2.00
27143;PMS1003;14672;50.250;8.312;2023-07-13T01:25:56;9.00;8.00;4.00
27143;PMS1003;14672;50.250;8.312;2023-07-13T01:28:24;9.75;8.25;2.00
27143;PMS1003;14672;50.250;8.312;2023-07-13T01:30:53;7.25;7.25;2.00
27143;PMS1003;14672;50.250;8.312;2023-07-13T01:33:20;8.00;7.50;2.50
27143;PMS1003;14672;50.250;8.312;2023-07-13T01:35:46;13.33;11.00;4.00
27143;PMS1003;14672;50.250;8.312;2023-07-13T01:38:16;10.25;10.25;4.00
27143;PMS1003;14672;50.250;8.312;2023-07-13T01:40:48;8.50;8.50;4.00
27143;PMS1003;14672;50.250;8.312;2023-07-13T01:43:16;8.50;8.25;2.00
27143;PMS1003;14672;50.250;8.312;2023-07-13T01:45:42;8.75;8.75;2.50
27143;PMS1003;14672;50.250;8.312;2023-07-13T01:48:09;7.00;7.00;2.00
27143;PMS1003;14672;50.250;8.312;2023-07-13T01:50:35;8.25;7.75;2.00
27143;PMS1003;14672;50.250;8.312;2023-07-13T01:53:02;7.50;7.25;2.00
27143;PMS1003;14672;50.250;8.312;2023-07-13T01:55:29;8.00;7.00;2.00
27143;PMS1003;14672;50.250;8.312;2023-07-13T01:57:55;9.75;8.00;2.00
27143;PMS1003;14672;50.250;8.312;2023-07-13T02:00:21;10.33;9.67;3.33
27143;PMS1003;14672;50.250;8.312;2023-07-13T02:02:47;9.00;9.00;5.00
27143;PMS1003;14672;50.250;8.312;2023-07-13T02:05:13;9.50;8.50;2.00
27143;PMS1003;14672;50.250;8.312;2023-07-13T02:07:40;8.00;8.00;4.00
27143;PMS1003;14672;50.250;8.312;2023-07-13T02:10:06;9.75;8.25;4.00
27143;PMS1003;14672;50.250;8.312;2023-07-13T02:12:35;7.50;7.50;3.00
27143;PMS1003;14672;50.250;8.312;2023-07-13T02:15:01;7.50;7.50;2.25
27143;PMS1003;14672;50.250;8.312;2023-07-13T02:17:28;7.00;7.00;2.00
27143;PMS1003;14672;50.250;8.312;2023-07-13T02:19:54;9.67;9.33;3.33
27143;PMS1003;14672;50.250;8.312;2023-07-13T02:22:20;11.00;11.00;5.00
27143;PMS1003;14672;50.250;8.312;2023-07-13T02:24:47;7.50;7.50;2.00
27143;PMS1003;14672;50.250;8.312;2023-07-13T02:27:14;7.00;7.00;2.25
27143;PMS1003;14672;50.250;8.312;2023-07-13T02:29:40;8.00;8.00;4.00
27143;PMS1003;14672;50.250;8.312;2023-07-13T02:32:05;8.00;7.67;2.00
27143;PMS1003;14672;50.250;8.312;2023-07-13T02:34:32;7.50;7.50;2.00
27143;PMS1003;14672;50.250;8.312;2023-07-13T02:36:57;8.00;8.00;2.33
27143;PMS1003;14672;50.250;8.312;2023-07-13T02:39:23;8.00;8.00;2.00
27143;PMS1003;14672;50.250;8.312;2023-07-13T02:41:49;10.00;10.00;5.00
27143;PMS1003;14672;50.250;8.312;2023-07-13T02:44:15;10.00;8.00;2.00
27143;PMS1003;14672;50.250;8.312;2023-07-13T02:46:40;12.67;9.00;2.00
27143;PMS1003;14672;50.250;8.312;2023-07-13T02:49:06;10.00;8.00;2.00
27143;PMS1003;14672;50.250;8.312;2023-07-13T02:51:32;8.00;7.33;3.33
27143;PMS1003;14672;50.250;8.312;2023-07-13T02:53:59;13.25;10.00;2.75
27143;PMS1003;14672;50.250;8.312;2023-07-13T02:56:29;7.75;7.75;2.00
27143;PMS1003;14672;50.250;8.312;2023-07-13T02:58:57;8.25;8.25;2.25
27143;PMS1003;14672;50.250;8.312;2023-07-13T03:01:23;5.00;5.00;2.00
27143;PMS1003;14672;50.250;8.312;2023-07-13T03:03:50;10.00;10.00;4.00
27143;PMS1003;14672;50.250;8.312;2023-07-13T03:06:17;8.75;8.75;2.00
27143;PMS1003;14672;50.250;8.312;2023-07-13T03:08:44;7.75;7.75;2.00
27143;PMS1003;14672;50.250;8.312;2023-07-13T03:11:14;10.75;9.25;4.00
27143;PMS1003;14672;50.250;8.312;2023-07-13T03:13:43;7.00;7.00;3.25
27143;PMS1003;14672;50.250;8.312;2023-07-13T03:16:10;7.75;7.75;2.00
27143;PMS1003;14672;50.250;8.312;2023-07-13T03:18:37;8.75;8.75;4.00
27143;PMS1003;14672;50.250;8.312;2023-07-13T03:21:03;8.75;8.75;3.75
27143;PMS1003;14672;50.250;8.312;2023-07-13T03:23:31;8.75;8.75;4.00
27143;PMS1003;14672;50.250;8.312;2023-07-13T03:26:07;7.25;7.00;2.75
27143;PMS1003;14672;50.250;8.312;2023-07-13T03:28:39;7.25;7.00;3.00
27143;PMS1003;14672;50.250;8.312;2023-07-13T03:31:08;9.25;8.50;2.75
27143;PMS1003;14672;50.250;8.312;2023-07-13T03:33:37;9.50;8.75;4.00
27143;PMS1003;14672;50.250;8.312;2023-07-13T03:36:04;9.25;9.25;5.75
27143;PMS1003;14672;50.250;8.312;2023-07-13T03:38:31;9.25;9.25;4.00
27143;PMS1003;14672;50.250;8.312;2023-07-13T03:40:58;8.50;8.25;2.75
27143;PMS1003;14672;50.250;8.312;2023-07-13T03:43:24;9.50;9.00;3.50
27143;PMS1003;14672;50.250;8.312;2023-07-13T03:45:49;9.67;9.33;4.00
27143;PMS1003;14672;50.250;8.312;2023-07-13T03:48:15;8.67;8.67;3.67
27143;PMS1003;14672;50.250;8.312;2023-07-13T03:50:41;9.00;9.00;4.00
27143;PMS1003;14672;50.250;8.312;2023-07-13T03:53:07;10.00;10.00;4.00
27143;PMS1003;14672;50.250;8.312;2023-07-13T03:55:32;9.00;8.33;3.00
27143;PMS1003;14672;50.250;8.312;2023-07-13T03:57:59;9.00;9.00;3.67
27143;PMS1003;14672;50.250;8.312;2023-07-13T04:00:47;7.00;7.00;2.75
27143;PMS1003;14672;50.250;8.312;2023-07-13T04:03:12;10.00;9.00;3.00
27143;PMS1003;14672;50.250;8.312;2023-07-13T04:05:38;11.33;9.67;4.00
27143;PMS1003;14672;50.250;8.312;2023-07-13T04:08:05;7.00;7.00;3.00
27143;PMS1003;14672;50.250;8.312;2023-07-13T04:10:31;10.00;9.00;4.00
27143;PMS1003;14672;50.250;8.312;2023-07-13T04:12:57;9.33;8.67;3.00
27143;PMS1003;14672;50.250;8.312;2023-07-13T04:15:23;10.00;9.67;4.00
27143;PMS1003;14672;50.250;8.312;2023-07-13T04:17:49;7.00;7.00;3.00
27143;PMS1003;14672;50.250;8.312;2023-07-13T04:20:14;9.33;8.00;3.00
27143;PMS1003;14672;50.250;8.312;2023-07-13T04:22:40;9.00;9.00;4.00
27143;PMS1003;14672;50.250;8.312;2023-07-13T04:25:06;8.67;8.67;3.00
27143;PMS1003;14672;50.250;8.312;2023-07-13T04:27:32;9.00;8.00;2.75
27143;PMS1003;14672;50.250;8.312;2023-07-13T04:29:58;9.00;9.00;4.00
27143;PMS1003;14672;50.250;8.312;2023-07-13T04:32:24;9.00;9.00;4.00
27143;PMS1003;14672;50.250;8.312;2023-07-13T04:34:49;7.00;7.00;3.00
27143;PMS1003;14672;50.250;8.312;2023-07-13T04:37:18;9.50;8.75;2.75
27143;PMS1003;14672;50.250;8.312;2023-07-13T04:39:48;9.00;9.00;4.75
27143;PMS1003;14672;50.250;8.312;2023-07-13T04:42:13;9.00;9.00;4.00
27143;PMS1003;14672;50.250;8.312;2023-07-13T04:44:39;10.67;9.00;3.00
27143;PMS1003;14672;50.250;8.312;2023-07-13T04:47:08;8.75;8.75;3.25
27143;PMS1003;14672;50.250;8.312;2023-07-13T04:49:33;7.00;7.00;3.67
27143;PMS1003;14672;50.250;8.312;2023-07-13T04:51:59;9.00;9.00;3.67
27143;PMS1003;14672;50.250;8.312;2023-07-13T04:54:25;10.00;10.00;4.00
27143;PMS1003;14672;50.250;8.312;2023-07-13T04:56:50;8.33;8.33;3.00
27143;PMS1003;14672;50.250;8.312;2023-07-13T04:59:16;9.50;8.75;2.75
27143;PMS1003;14672;50.250;8.312;2023-07-13T05:01:42;8.67;8.67;4.00
27143;PMS1003;14672;50.250;8.312;2023-07-13T05:04:08;9.00;9.00;3.00
27143;PMS1003;14672;50.250;8.312;2023-07-13T05:06:33;8.67;8.00;2.33
27143;PMS1003;14672;50.250;8.312;2023-07-13T05:08:59;8.00;7.33;2.00
27143;PMS1003;14672;50.250;8.312;2023-07-13T05:11:25;10.00;7.67;2.33
27143;PMS1003;14672;50.250;8.312;2023-07-13T05:13:51;7.67;7.67;2.00
27143;PMS1003;14672;50.250;8.312;2023-07-13T05:16:16;7.67;7.67;3.67
27143;PMS1003;14672;50.250;8.312;2023-07-13T05:18:42;10.33;9.33;2.00
27143;PMS1003;14672;50.250;8.312;2023-07-13T05:21:08;10.00;9.67;4.00
27143;PMS1003;14672;50.250;8.312;2023-07-13T05:23:35;8.25;7.50;2.75
27143;PMS1003;14672;50.250;8.312;2023-07-13T05:26:03;8.00;8.00;4.00
27143;PMS1003;14672;50.250;8.312;2023-07-13T05:28:30;10.50;10.00;3.50
27143;PMS1003;14672;50.250;8.312;2023-07-13T05:30:56;7.75;7.50;2.00
27143;PMS1003;14672;50.250;8.312;2023-07-13T05:33:22;10.25;10.00;4.00
27143;PMS1003;14672;50.250;8.312;2023-07-13T05:35:49;8.25;7.00;2.00
27143;PMS1003;14672;50.250;8.312;2023-07-13T05:38:15;8.00;8.00;2.67
27143;PMS1003;14672;50.250;8.312;2023-07-13T05:40:46;8.75;7.75;2.00
27143;PMS1003;14672;50.250;8.312;2023-07-13T05:43:12;9.00;9.00;2.00
27143;PMS1003;14672;50.250;8.312;2023-07-13T05:45:39;10.75;9.50;4.00
27143;PMS1003;14672;50.250;8.312;2023-07-13T05:48:05;8.00;8.00;2.00
27143;PMS1003;14672;50.250;8.312;2023-07-13T05:50:31;7.75;7.75;4.00
27143;PMS1003;14672;50.250;8.312;2023-07-13T05:52:57;8.00;8.00;4.33
27143;PMS1003;14672;50.250;8.312;2023-07-13T05:55:22;8.33;8.33;4.00
27143;PMS1003;14672;50.250;8.312;2023-07-13T05:57:48;11.50;10.50;4.50
27143;PMS1003;14672;50.250;8.312;2023-07-13T06:00:14;8.00;8.00;4.00
27143;PMS1003;14672;50.250;8.312;2023-07-13T06:02:41;10.25;10.25;4.75
27143;PMS1003;14672;50.250;8.312;2023-07-13T06:05:07;8.00;8.00;3.00
27143;PMS1003;14672;50.250;8.312;2023-07-13T06:07:33;9.50;8.75;3.50
27143;PMS1003;14672;50.250;8.312;2023-07-13T06:09:59;7.00;7.00;2.00
27143;PMS1003;14672;50.250;8.312;2023-07-13T06:12:25;7.00;6.67;2.00
27143;PMS1003;14672;50.250;8.312;2023-07-13T06:14:52;6.75;5.00;1.00
27143;PMS1003;14672;50.250;8.312;2023-07-13T06:17:18;5.33;5.33;2.00
27143;PMS1003;14672;50.250;8.312;2023-07-13T06:19:43;6.67;6.67;1.00
27143;PMS1003;14672;50.250;8.312;2023-07-13T06:22:12;4.50;4.50;1.00
27143;PMS1003;14672;50.250;8.312;2023-07-13T06:24:40;8.00;6.00;2.00
27143;PMS1003;14672;50.250;8.312;2023-07-13T06:27:06;6.00;5.33;2.00
27143;PMS1003;14672;50.250;8.312;2023-07-13T06:29:32;6.00;5.00;1.00
27143;PMS1003;14672;50.250;8.312;2023-07-13T06:31:58;5.33;5.33;1.00
27143;PMS1003;14672;50.250;8.312;2023-07-13T06:34:24;5.00;5.00;1.00
27143;PMS1003;14672;50.250;8.312;2023-07-13T06:36:52;6.00;6.00;2.00
27143;PMS1003;14672;50.250;8.312;2023-07-13T06:39:20;7.00;7.00;2.00
27143;PMS1003;14672;50.250;8.312;2023-07-13T06:41:46;6.67;6.67;2.67
27143;PMS1003;14672;50.250;8.312;2023-07-13T06:44:12;5.00;5.00;1.00
27143;PMS1003;14672;50.250;8.312;2023-07-13T06:46:38;6.00;6.00;2.00
27143;PMS1003;14672;50.250;8.312;2023-07-13T06:49:04;6.00;6.00;1.00
27143;PMS1003;14672;50.250;8.312;2023-07-13T06:51:29;5.00;5.00;1.00
27143;PMS1003;14672;50.250;8.312;2023-07-13T06:53:55;5.67;5.33;1.67
27143;PMS1003;14672;50.250;8.312;2023-07-13T06:56:21;5.00;5.00;2.00
27143;PMS1003;14672;50.250;8.312;2023-07-13T06:58:47;5.00;5.00;1.00
27143;PMS1003;14672;50.250;8.312;2023-07-13T07:01:12;6.00;6.00;1.33
27143;PMS1003;14672;50.250;8.312;2023-07-13T07:03:38;5.00;5.00;1.00
27143;PMS1003;14672;50.250;8.312;2023-07-13T07:06:12;5.00;5.00;1.00
27143;PMS1003;14672;50.250;8.312;2023-07-13T07:08:43;5.50;5.50;2.00
27143;PMS1003;14672;50.250;8.312;2023-07-13T07:11:13;5.75;5.00;1.75
27143;PMS1003;14672;50.250;8.312;2023-07-13T07:13:43;5.00;5.00;1.00
27143;PMS1003;14672;50.250;8.312;2023-07-13T07:16:09;7.00;7.00;1.33
27143;PMS1003;14672;50.250;8.312;2023-07-13T07:18:35;5.33;5.33;1.33
27143;PMS1003;14672;50.250;8.312;2023-07-13T07:21:01;3.50;3.50;1.00
27143;PMS1003;14672;50.250;8.312;2023-07-13T07:23:27;6.00;5.00;1.00
27143;PMS1003;14672;50.250;8.312;2023-07-13T07:25:53;5.00;5.00;1.00
27143;PMS1003;14672;50.250;8.312;2023-07-13T07:28:19;5.00;5.00;1.00
27143;PMS1003;14672;50.250;8.312;2023-07-13T07:30:46;6.00;6.00;2.00
27143;PMS1003;14672;50.250;8.312;2023-07-13T07:33:13;5.75;5.75;2.00
27143;PMS1003;14672;50.250;8.312;2023-07-13T07:35:40;6.00;6.00;1.00
27143;PMS1003;14672;50.250;8.312;2023-07-13T07:38:05;5.00;5.00;1.00
27143;PMS1003;14672;50.250;8.312;2023-07-13T07:40:35;3.00;3.00;1.00
27143;PMS1003;14672;50.250;8.312;2023-07-13T07:43:06;6.25;6.00;2.00
27143;PMS1003;14672;50.250;8.312;2023-07-13T07:45:34;5.00;5.00;1.50
27143;PMS1003;14672;50.250;8.312;2023-07-13T07:48:06;5.00;5.00;1.00
27143;PMS1003;14672;50.250;8.312;2023-07-13T07:50:34;4.50;4.50;1.00
27143;PMS1003;14672;50.250;8.312;2023-07-13T07:53:01;6.75;6.25;2.00
27143;PMS1003;14672;50.250;8.312;2023-07-13T07:55:27;5.25;5.25;2.00
27143;PMS1003;14672;50.250;8.312;2023-07-13T07:57:53;6.00;5.00;1.25
27143;PMS1003;14672;50.250;8.312;2023-07-13T08:00:19;7.00;5.50;1.50
27143;PMS1003;14672;50.250;8.312;2023-07-13T08:02:45;7.00;7.00;2.00
27143;PMS1003;14672;50.250;8.312;2023-07-13T08:05:11;6.33;6.33;1.00
27143;PMS1003;14672;50.250;8.312;2023-07-13T08:07:37;5.67;5.67;1.00
27143;PMS1003;14672;50.250;8.312;2023-07-13T08:10:07;3.00;3.00;1.00
27143;PMS1003;14672;50.250;8.312;2023-07-13T08:12:37;5.00;5.00;1.25
27143;PMS1003;14672;50.250;8.312;2023-07-13T08:15:09;5.75;5.75;2.00
27143;PMS1003;14672;50.250;8.312;2023-07-13T08:17:38;5.00;5.00;1.00
27143;PMS1003;14672;50.250;8.312;2023-07-13T08:20:07;5.67;5.67;1.67
27143;PMS1003;14672;50.250;8.312;2023-07-13T08:22:36;5.25;5.00;1.25
27143;PMS1003;14672;50.250;8.312;2023-07-13T08:25:02;5.25;5.25;2.00
27143;PMS1003;14672;50.250;8.312;2023-07-13T08:27:28;5.00;4.75;2.00
27143;PMS1003;14672;50.250;8.312;2023-07-13T08:29:54;5.00;5.00;1.00
27143;PMS1003;14672;50.250;8.312;2023-07-13T08:32:21;6.33;5.00;1.00
27143;PMS1003;14672;50.250;8.312;2023-07-13T08:34:50;4.75;4.75;1.00
27143;PMS1003;14672;50.250;8.312;2023-07-13T08:37:17;5.00;5.00;2.00
27143;PMS1003;14672;50.250;8.312;2023-07-13T08:39:43;4.75;4.75;1.00
27143;PMS1003;14672;50.250;8.312;2023-07-13T08:48:01;5.00;5.00;2.00
27143;PMS1003;14672;50.250;8.312;2023-07-13T08:53:42;5.75;5.00;1.00
27143;PMS1003;14672;50.250;8.312;2023-07-13T08:56:17;4.75;4.75;1.25
27143;PMS1003;14672;50.250;8.312;2023-07-13T08:58:47;5.25;4.75;1.00
27143;PMS1003;14672;50.250;8.312;2023-07-13T09:01:22;5.00;4.75;1.00
27143;PMS1003;14672;50.250;8.312;2023-07-13T09:04:11;4.75;4.75;2.00
27143;PMS1003;14672;50.250;8.312;2023-07-13T09:06:58;4.75;4.75;1.00
27143;PMS1003;14672;50.250;8.312;2023-07-13T09:14:48;6.00;6.00;2.00
27143;PMS1003;14672;50.250;8.312;2023-07-13T09:17:30;6.00;6.00;1.25
27143;PMS1003;14672;50.250;8.312;2023-07-13T09:20:22;4.75;4.75;1.00
27143;PMS1003;14672;50.250;8.312;2023-07-13T09:22:54;4.75;4.75;1.00
27143;PMS1003;14672;50.250;8.312;2023-07-13T09:25:30;4.75;4.75;0.75
27143;PMS1003;14672;50.250;8.312;2023-07-13T09:27:58;3.75;3.75;1.00
27143;PMS1003;14672;50.250;8.312;2023-07-13T09:30:45;4.75;4.75;2.00
27143;PMS1003;14672;50.250;8.312;2023-07-13T09:33:23;6.00;5.00;1.00
27143;PMS1003;14672;50.250;8.312;2023-07-13T09:35:50;5.25;5.25;1.75
27143;PMS1003;14672;50.250;8.312;2023-07-13T09:38:17;4.67;4.67;1.00
27143;PMS1003;14672;50.250;8.312;2023-07-13T09:40:56;5.50;5.25;2.00
27143;PMS1003;14672;50.250;8.312;2023-07-13T09:46:43;3.00;3.00;1.00
27143;PMS1003;14672;50.250;8.312;2023-07-13T09:49:17;4.00;4.00;1.00
27143;PMS1003;14672;50.250;8.312;2023-07-13T09:51:44;5.25;5.25;2.00
27143;PMS1003;14672;50.250;8.312;2023-07-13T09:54:21;4.25;4.25;1.00
27143;PMS1003;14672;50.250;8.312;2023-07-13T09:56:57;5.75;5.75;2.00
27143;PMS1003;14672;50.250;8.312;2023-07-13T09:59:27;4.25;4.00;1.00
27143;PMS1003;14672;50.250;8.312;2023-07-13T10:05:00;6.00;6.00;1.00
27143;PMS1003;14672;50.250;8.312;2023-07-13T10:07:37;6.00;6.00;1.00
27143;PMS1003;14672;50.250;8.312;2023-07-13T10:10:13;5.50;5.50;2.00
27143;PMS1003;14672;50.250;8.312;2023-07-13T10:12:49;4.00;4.00;1.50
27143;PMS1003;14672;50.250;8.312;2023-07-13T10:15:17;5.50;5.50;2.00
27143;PMS1003;14672;50.250;8.312;2023-07-13T10:17:47;4.00;4.00;1.00
27143;PMS1003;14672;50.250;8.312;2023-07-13T10:20:13;5.25;4.25;1.00
27143;PMS1003;14672;50.250;8.312;2023-07-13T10:25:23;6.00;6.00;2.00
27143;PMS1003;14672;50.250;8.312;2023-07-13T10:27:52;4.00;4.00;1.00
27143;PMS1003;14672;50.250;8.312;2023-07-13T10:30:31;6.50;6.50;2.00
27143;PMS1003;14672;50.250;8.312;2023-07-13T10:33:04;6.00;6.00;2.00
27143;PMS1003;14672;50.250;8.312;2023-07-13T10:35:37;7.25;6.25;1.25
27143;PMS1003;14672;50.250;8.312;2023-07-13T10:38:12;5.75;5.75;2.25
27143;PMS1003;14672;50.250;8.312;2023-07-13T10:40:57;4.50;4.50;1.25
27143;PMS1003;14672;50.250;8.312;2023-07-13T10:46:11;4.50;4.50;2.00
27143;PMS1003;14672;50.250;8.312;2023-07-13T10:48:40;6.25;5.00;2.00
27143;PMS1003;14672;50.250;8.312;2023-07-13T10:51:10;4.25;4.25;1.75
27143;PMS1003;14672;50.250;8.312;2023-07-13T10:53:39;4.00;4.00;1.00
27143;PMS1003;14672;50.250;8.312;2023-07-13T10:56:08;7.67;5.00;2.00
27143;PMS1003;14672;50.250;8.312;2023-07-13T11:01:58;6.50;6.50;2.50
27143;PMS1003;14672;50.250;8.312;2023-07-13T11:04:41;4.75;4.00;1.25
27143;PMS1003;14672;50.250;8.312;2023-07-13T11:07:23;4.50;4.50;2.00
27143;PMS1003;14672;50.250;8.312;2023-07-13T11:09:58;3.50;3.50;1.00
27143;PMS1003;14672;50.250;8.312;2023-07-13T11:12:51;5.25;5.25;2.00
27143;PMS1003;14672;50.250;8.312;2023-07-13T11:15:27;4.00;4.00;1.75
27143;PMS1003;14672;50.250;8.312;2023-07-13T11:18:21;7.00;7.00;3.00
27143;PMS1003;14672;50.250;8.312;2023-07-13T11:20:50;5.00;5.00;2.00
27143;PMS1003;14672;50.250;8.312;2023-07-13T11:25:56;6.75;5.25;2.50
27143;PMS1003;14672;50.250;8.312;2023-07-13T11:28:23;5.75;5.75;2.00
27143;PMS1003;14672;50.250;8.312;2023-07-13T11:36:14;6.25;5.00;2.00
27143;PMS1003;14672;50.250;8.312;2023-07-13T11:41:31;5.00;5.00;2.00
27143;PMS1003;14672;50.250;8.312;2023-07-13T11:44:22;7.00;7.00;2.00
27143;PMS1003;14672;50.250;8.312;2023-07-13T11:46:50;5.75;5.75;2.00
27143;PMS1003;14672;50.250;8.312;2023-07-13T11:49:20;6.75;6.00;2.00
27143;PMS1003;14672;50.250;8.312;2023-07-13T11:51:49;5.00;5.00;2.00
27143;PMS1003;14672;50.250;8.312;2023-07-13T11:54:41;5.00;5.00;1.25
27143;PMS1003;14672;50.250;8.312;2023-07-13T11:57:32;5.00;5.00;2.00
27143;PMS1003;14672;50.250;8.312;2023-07-13T12:00:15;7.00;6.50;2.00
27143;PMS1003;14672;50.250;8.312;2023-07-13T12:02:51;8.00;6.75;3.00
27143;PMS1003;14672;50.250;8.312;2023-07-13T12:05:22;8.00;5.00;2.00
27143;PMS1003;14672;50.250;8.312;2023-07-13T12:07:54;4.00;4.00;1.00
27143;PMS1003;14672;50.250;8.312;2023-07-13T12:10:22;4.00;4.00;2.00
27143;PMS1003;14672;50.250;8.312;2023-07-13T12:15:40;4.50;4.50;2.00
27143;PMS1003;14672;50.250;8.312;2023-07-13T12:18:15;5.75;5.50;2.00
27143;PMS1003;14672;50.250;8.312;2023-07-13T12:20:46;5.00;5.00;2.00
27143;PMS1003;14672;50.250;8.312;2023-07-13T12:23:21;4.00;4.00;1.00
27143;PMS1003;14672;50.250;8.312;2023-07-13T12:25:51;5.00;5.00;2.00
27143;PMS1003;14672;50.250;8.312;2023-07-13T12:28:21;5.00;4.25;1.25
27143;PMS1003;14672;50.250;8.312;2023-07-13T12:31:06;5.50;5.50;2.00
27143;PMS1003;14672;50.250;8.312;2023-07-13T12:34:24;5.75;5.75;2.00
27143;PMS1003;14672;50.250;8.312;2023-07-13T12:36:50;5.00;5.00;1.50
27143;PMS1003;14672;50.250;8.312;2023-07-13T12:42:09;7.00;5.25;1.25
27143;PMS1003;14672;50.250;8.312;2023-07-13T12:45:39;5.00;5.00;2.00
27143;PMS1003;14672;50.250;8.312;2023-07-13T12:47:52;5.25;5.25;1.75
27143;PMS1003;14672;50.250;8.312;2023-07-13T12:50:40;5.00;5.00;2.00
27143;PMS1003;14672;50.250;8.312;2023-07-13T12:53:15;6.75;5.00;1.75
27143;PMS1003;14672;50.250;8.312;2023-07-13T12:55:53;7.25;5.50;2.00
27143;PMS1003;14672;50.250;8.312;2023-07-13T13:00:53;4.50;4.50;2.00
27143;PMS1003;14672;50.250;8.312;2023-07-13T13:03:31;7.75;7.00;3.00
27143;PMS1003;14672;50.250;8.312;2023-07-13T13:08:48;6.50;6.50;2.75
27143;PMS1003;14672;50.250;8.312;2023-07-13T13:11:20;4.50;4.50;2.00
27143;PMS1003;14672;50.250;8.312;2023-07-13T13:13:48;7.00;5.50;2.25
27143;PMS1003;14672;50.250;8.312;2023-07-13T13:16:32;7.00;7.00;2.25
27143;PMS1003;14672;50.250;8.312;2023-07-13T13:19:10;5.50;5.50;2.00
27143;PMS1003;14672;50.250;8.312;2023-07-13T13:21:49;6.50;6.50;2.00
27143;PMS1003;14672;50.250;8.312;2023-07-13T13:24:18;6.25;5.00;1.00
27143;PMS1003;14672;50.250;8.312;2023-07-13T13:26:47;7.50;7.50;3.00
27143;PMS1003;14672;50.250;8.312;2023-07-13T13:29:20;6.75;6.75;3.00
27143;PMS1003;14672;50.250;8.312;2023-07-13T13:31:52;7.00;5.00;2.00
27143;PMS1003;14672;50.250;8.312;2023-07-13T13:34:19;4.75;4.75;1.75
27143;PMS1003;14672;50.250;8.312;2023-07-13T13:36:48;4.00;4.00;1.00
27143;PMS1003;14672;50.250;8.312;2023-07-13T13:41:49;4.50;4.50;1.75
27143;PMS1003;14672;50.250;8.312;2023-07-13T13:44:17;5.25;5.25;3.00
27143;PMS1003;14672;50.250;8.312;2023-07-13T13:46:53;5.00;5.00;1.00
27143;PMS1003;14672;50.250;8.312;2023-07-13T13:49:21;5.00;5.00;2.00
27143;PMS1003;14672;50.250;8.312;2023-07-13T13:51:50;5.00;5.00;2.00
27143;PMS1003;14672;50.250;8.312;2023-07-13T13:54:19;7.50;6.00;2.00
27143;PMS1003;14672;50.250;8.312;2023-07-13T13:56:47;5.75;5.50;2.00
27143;PMS1003;14672;50.250;8.312;2023-07-13T13:59:16;7.25;6.00;2.00
27143;PMS1003;14672;50.250;8.312;2023-07-13T14:01:44;5.25;4.25;1.00
27143;PMS1003;14672;50.250;8.312;2023-07-13T14:04:20;5.00;4.75;2.00
27143;PMS1003;14672;50.250;8.312;2023-07-13T14:06:47;5.00;5.00;1.75
27143;PMS1003;14672;50.250;8.312;2023-07-13T14:09:16;5.00;5.00;2.00
27143;PMS1003;14672;50.250;8.312;2023-07-13T14:11:44;6.50;6.50;2.00
27143;PMS1003;14672;50.250;8.312;2023-07-13T14:14:22;7.50;5.25;1.00
27143;PMS1003;14672;50.250;8.312;2023-07-13T14:16:52;5.25;5.25;2.00
27143;PMS1003;14672;50.250;8.312;2023-07-13T14:19:20;6.50;5.00;2.00
27143;PMS1003;14672;50.250;8.312;2023-07-13T14:21:46;6.50;6.50;2.00
27143;PMS1003;14672;50.250;8.312;2023-07-13T14:24:17;5.00;5.00;2.25
27143;PMS1003;14672;50.250;8.312;2023-07-13T14:26:43;4.67;4.67;1.67
27143;PMS1003;14672;50.250;8.312;2023-07-13T14:29:15;5.00;5.00;2.00
27143;PMS1003;14672;50.250;8.312;2023-07-13T14:31:43;5.75;5.75;2.00
27143;PMS1003;14672;50.250;8.312;2023-07-13T14:34:10;4.75;4.75;1.50
27143;PMS1003;14672;50.250;8.312;2023-07-13T14:36:41;5.00;5.00;2.25
27143;PMS1003;14672;50.250;8.312;2023-07-13T14:41:43;6.50;6.50;2.25
27143;PMS1003;14672;50.250;8.312;2023-07-13T14:44:16;5.75;5.75;2.00
27143;PMS1003;14672;50.250;8.312;2023-07-13T14:46:46;6.25;6.25;2.25
27143;PMS1003;14672;50.250;8.312;2023-07-13T14:52:18;5.00;5.00;2.00
27143;PMS1003;14672;50.250;8.312;2023-07-13T14:54:47;7.00;7.00;2.50
27143;PMS1003;14672;50.250;8.312;2023-07-13T14:57:14;6.33;6.33;2.00
27143;PMS1003;14672;50.250;8.312;2023-07-13T14:59:43;5.00;5.00;2.00
27143;PMS1003;14672;50.250;8.312;2023-07-13T15:02:18;5.00;5.00;2.00
27143;PMS1003;14672;50.250;8.312;2023-07-13T15:04:57;5.00;5.00;2.00
27143;PMS1003;14672;50.250;8.312;2023-07-13T15:07:24;6.75;5.00;2.00
27143;PMS1003;14672;50.250;8.312;2023-07-13T15:09:50;4.50;4.50;2.00
27143;PMS1003;14672;50.250;8.312;2023-07-13T15:12:16;5.67;5.67;2.00
27143;PMS1003;14672;50.250;8.312;2023-07-13T15:14:43;5.25;5.25;2.00
27143;PMS1003;14672;50.250;8.312;2023-07-13T15:17:19;4.00;4.00;2.00
27143;PMS1003;14672;50.250;8.312;2023-07-13T15:19:56;5.50;5.00;2.00
27143;PMS1003;14672;50.250;8.312;2023-07-13T15:22:22;6.00;5.00;2.00
27143;PMS1003;14672;50.250;8.312;2023-07-13T15:24:48;5.00;5.00;2.00
27143;PMS1003;14672;50.250;8.312;2023-07-13T15:27:13;5.00;5.00;2.00
27143;PMS1003;14672;50.250;8.312;2023-07-13T15:29:42;6.50;6.50;2.25
27143;PMS1003;14672;50.250;8.312;2023-07-13T15:32:15;6.50;6.50;2.00
27143;PMS1003;14672;50.250;8.312;2023-07-13T15:34:40;4.25;4.00;1.50
27143;PMS1003;14672;50.250;8.312;2023-07-13T15:37:11;5.00;5.00;2.00